Time,TemperatureF,DewpointF,PressureIn,WindDirection,WindDirectionDegrees,WindSpeedMPH,WindSpeedGustMPH,Humidity,HourlyPrecipIn,Conditions,Clouds,dailyrainin,SoftwareType,DateUTC
2013-02-20 00:05:00,27.2,24.0,29.68,NNW,342,5.0,11.0,89,0.00,,,0.01,weatherlink.com 1.10,2013-02-20 05:05:00,
2013-02-20 00:19:00,27.1,24.0,29.68,North,360,5.0,14.0,88,0.00,,,0.01,weatherlink.com 1.10,2013-02-20 05:19:00,
2013-02-20 00:34:00,27.0,24.0,29.68,WNW,300,3.0,10.0,87,0.00,,,0.01,weatherlink.com 1.10,2013-02-20 05:34:00,
2013-02-20 00:49:00,26.8,23.0,29.69,North,355,13.0,16.0,86,0.00,,,0.01,weatherlink.com 1.10,2013-02-20 05:49:00,
2013-02-20 01:04:00,23.9,21.0,29.70,North,355,12.0,23.0,87,0.00,,,0.01,weatherlink.com 1.10,2013-02-20 06:04:00,
2013-02-20 01:19:00,23.9,20.0,29.70,NW,319,7.0,15.0,86,0.00,,,0.01,weatherlink.com 1.10,2013-02-20 06:19:00,
2013-02-20 01:34:00,23.9,21.0,29.70,WNW,296,6.0,15.0,87,0.00,,,0.01,weatherlink.com 1.10,2013-02-20 06:34:00,
2013-02-20 01:49:00,23.4,20.0,29.71,NW,317,12.0,21.0,86,0.00,,,0.01,weatherlink.com 1.10,2013-02-20 06:49:00,
2013-02-20 02:04:00,22.9,19.0,29.71,WNW,301,9.0,14.0,85,0.00,,,0.01,weatherlink.com 1.10,2013-02-20 07:04:00,
2013-02-20 02:19:00,22.2,18.0,29.71,NNW,327,11.0,18.0,82,0.00,,,0.01,weatherlink.com 1.10,2013-02-20 07:19:00,
2013-02-20 02:36:00,21.5,16.0,29.72,NW,326,13.0,18.0,80,0.00,,,0.01,weatherlink.com 1.10,2013-02-20 07:36:00,
2013-02-20 02:50:00,21.1,16.0,29.73,NW,305,13.0,19.0,80,0.00,,,0.01,weatherlink.com 1.10,2013-02-20 07:50:00,
2013-02-20 03:05:00,20.5,15.0,29.73,NW,313,12.0,16.0,78,0.00,,,0.01,weatherlink.com 1.10,2013-02-20 08:05:00,
2013-02-20 03:20:00,20.1,14.0,29.73,NW,316,11.0,17.0,78,0.00,,,0.01,weatherlink.com 1.10,2013-02-20 08:20:00,
2013-02-20 03:35:00,19.9,14.0,29.72,NNW,329,13.0,17.0,78,0.00,,,0.01,weatherlink.com 1.10,2013-02-20 08:35:00,
2013-02-20 03:50:00,19.6,14.0,29.72,NNW,330,10.0,15.0,77,0.00,,,0.01,weatherlink.com 1.10,2013-02-20 08:50:00,
2013-02-20 04:05:00,19.3,13.0,29.73,NW,317,5.0,18.0,76,0.00,,,0.01,weatherlink.com 1.10,2013-02-20 09:05:00,
2013-02-20 04:20:00,18.8,12.0,29.73,NNW,336,9.0,16.0,76,0.00,,,0.01,weatherlink.com 1.10,2013-02-20 09:20:00,
2013-02-20 04:35:00,18.6,12.0,29.73,NW,320,11.0,15.0,75,0.00,,,0.01,weatherlink.com 1.10,2013-02-20 09:35:00,
2013-02-20 04:50:00,18.6,12.0,29.73,WNW,283,11.0,15.0,75,0.00,,,0.01,weatherlink.com 1.10,2013-02-20 09:50:00,
2013-02-20 05:05:00,18.4,11.0,29.73,WNW,302,8.0,14.0,73,0.00,,,0.01,weatherlink.com 1.10,2013-02-20 10:05:00,
2013-02-20 05:21:00,18.0,11.0,29.73,NNW,340,10.0,13.0,74,0.00,,,0.00,weatherlink.com 1.10,2013-02-20 10:21:00,
2013-02-20 05:36:00,18.1,11.0,29.73,NW,324,12.0,18.0,73,0.00,,,0.00,weatherlink.com 1.10,2013-02-20 10:36:00,
2013-02-20 05:51:00,17.9,11.0,29.73,NW,312,6.0,22.0,74,0.00,,,0.00,weatherlink.com 1.10,2013-02-20 10:51:00,
2013-02-20 06:06:00,17.7,11.0,29.74,NW,304,11.0,21.0,74,0.00,,,0.00,weatherlink.com 1.10,2013-02-20 11:06:00,
2013-02-20 06:21:00,17.2,11.0,29.75,WNW,286,10.0,20.0,76,0.00,,,0.00,weatherlink.com 1.10,2013-02-20 11:21:00,
2013-02-20 06:37:00,17.1,11.0,29.75,WNW,300,8.0,15.0,76,0.00,,,0.00,weatherlink.com 1.10,2013-02-20 11:37:00,
2013-02-20 07:00:00,16.8,10.0,29.75,NW,318,8.0,24.0,76,0.00,,,0.00,weatherlink.com 1.10,2013-02-20 12:00:00,
2013-02-20 07:06:00,16.8,10.0,29.76,NNW,336,12.0,17.0,76,0.00,,,0.00,weatherlink.com 1.10,2013-02-20 12:06:00,
2013-02-20 07:21:00,16.8,10.0,29.76,NNW,345,8.0,14.0,76,0.00,,,0.00,weatherlink.com 1.10,2013-02-20 12:21:00,
2013-02-20 07:36:00,16.9,10.0,29.77,NNW,338,11.0,21.0,75,0.00,,,0.00,weatherlink.com 1.10,2013-02-20 12:36:00,
2013-02-20 07:51:00,17.0,11.0,29.76,NNW,331,9.0,21.0,76,0.00,,,0.00,weatherlink.com 1.10,2013-02-20 12:51:00,
2013-02-20 08:06:00,17.3,11.0,29.77,West,259,8.0,16.0,75,0.00,,,0.00,weatherlink.com 1.10,2013-02-20 13:06:00,
2013-02-20 08:21:00,17.7,11.0,29.78,West,261,11.0,17.0,74,0.00,,,0.00,weatherlink.com 1.10,2013-02-20 13:21:00,
2013-02-20 08:36:00,17.7,11.0,29.78,NNW,330,7.0,20.0,75,0.00,,,0.00,weatherlink.com 1.10,2013-02-20 13:36:00,
2013-02-20 08:52:00,17.9,11.0,29.78,North,350,9.0,18.0,75,0.00,,,0.00,weatherlink.com 1.10,2013-02-20 13:52:00,
2013-02-20 09:08:00,18.2,11.0,29.78,NW,312,4.0,17.0,74,0.00,,,0.00,weatherlink.com 1.10,2013-02-20 14:08:00,
2013-02-20 09:23:00,18.8,11.0,29.77,NNW,333,8.0,18.0,72,0.00,,,0.00,weatherlink.com 1.10,2013-02-20 14:23:00,
2013-02-20 09:37:00,18.2,11.0,29.78,NNW,335,13.0,23.0,73,0.00,,,0.00,weatherlink.com 1.10,2013-02-20 14:37:00,
2013-02-20 09:52:00,18.5,11.0,29.78,NW,323,8.0,21.0,71,0.00,,,0.00,weatherlink.com 1.10,2013-02-20 14:52:00,
2013-02-20 10:07:00,18.4,10.0,29.78,NNW,347,8.0,17.0,71,0.00,,,0.00,weatherlink.com 1.10,2013-02-20 15:07:00,
2013-02-20 10:22:00,18.2,11.0,29.78,North,360,9.0,20.0,72,0.00,,,0.00,weatherlink.com 1.10,2013-02-20 15:22:00,
2013-02-20 10:37:00,18.8,11.0,29.78,NNW,342,11.0,22.0,70,0.00,,,0.00,weatherlink.com 1.10,2013-02-20 15:37:00,
2013-02-20 10:53:00,19.8,11.0,29.78,NNW,344,20.0,23.0,68,0.00,,,0.00,weatherlink.com 1.10,2013-02-20 15:53:00,
2013-02-20 11:08:00,19.2,10.0,29.79,WNW,292,8.0,18.0,68,0.00,,,0.00,weatherlink.com 1.10,2013-02-20 16:08:00,
2013-02-20 11:23:00,19.0,11.0,29.79,NW,326,7.0,22.0,71,0.00,,,0.00,weatherlink.com 1.10,2013-02-20 16:23:00,
2013-02-20 11:38:00,19.6,11.0,29.79,NNW,329,20.0,23.0,68,0.00,,,0.00,weatherlink.com 1.10,2013-02-20 16:38:00,
2013-02-20 11:53:00,18.7,11.0,29.79,NNW,330,14.0,16.0,72,0.00,,,0.00,weatherlink.com 1.10,2013-02-20 16:53:00,
2013-02-20 12:08:00,19.4,11.0,29.79,NW,314,11.0,20.0,69,0.00,,,0.00,weatherlink.com 1.10,2013-02-20 17:08:00,
2013-02-20 12:23:00,19.3,11.0,29.79,NNW,329,11.0,21.0,71,0.00,,,0.00,weatherlink.com 1.10,2013-02-20 17:23:00,
2013-02-20 12:38:00,19.0,13.0,29.79,NW,322,11.0,23.0,76,0.00,,,0.00,weatherlink.com 1.10,2013-02-20 17:38:00,
2013-02-20 12:54:00,18.7,13.0,29.79,NW,308,8.0,18.0,78,0.00,,,0.00,weatherlink.com 1.10,2013-02-20 17:54:00,
2013-02-20 13:08:00,18.6,14.0,29.79,NW,319,11.0,19.0,82,0.00,,,0.00,weatherlink.com 1.10,2013-02-20 18:08:00,
2013-02-20 13:23:00,18.4,13.0,29.79,NW,321,13.0,19.0,80,0.00,,,0.00,weatherlink.com 1.10,2013-02-20 18:23:00,
2013-02-20 13:39:00,19.1,11.0,29.79,NNW,346,7.0,21.0,70,0.00,,,0.00,weatherlink.com 1.10,2013-02-20 18:39:00,
2013-02-20 13:54:00,18.9,12.0,29.80,West,263,8.0,16.0,74,0.00,,,0.00,weatherlink.com 1.10,2013-02-20 18:54:00,
2013-02-20 14:09:00,19.4,11.0,29.80,WSW,250,5.0,15.0,71,0.00,,,0.00,weatherlink.com 1.10,2013-02-20 19:09:00,
2013-02-20 14:24:00,18.8,12.0,29.80,NNE,16,14.0,21.0,74,0.00,,,0.00,weatherlink.com 1.10,2013-02-20 19:24:00,
2013-02-20 14:39:00,18.6,11.0,29.82,NNW,346,9.0,22.0,71,0.00,,,0.00,weatherlink.com 1.10,2013-02-20 19:39:00,
2013-02-20 14:54:00,20.3,9.0,29.82,WNW,297,13.0,20.0,62,0.00,,,0.00,weatherlink.com 1.10,2013-02-20 19:54:00,
2013-02-20 15:09:00,19.1,8.0,29.82,West,281,7.0,26.0,63,0.00,,,0.00,weatherlink.com 1.10,2013-02-20 20:09:00,
2013-02-20 15:24:00,19.0,9.0,29.83,WSW,247,10.0,27.0,64,0.00,,,0.00,weatherlink.com 1.10,2013-02-20 20:24:00,
2013-02-20 15:39:00,18.2,9.0,29.83,NNW,333,12.0,27.0,68,0.00,,,0.00,weatherlink.com 1.10,2013-02-20 20:39:00,
2013-02-20 15:55:00,18.5,9.0,29.84,North,9,4.0,26.0,66,0.00,,,0.00,weatherlink.com 1.10,2013-02-20 20:55:00,
2013-02-20 16:10:00,17.6,8.0,29.85,NW,311,15.0,26.0,67,0.00,,,0.00,weatherlink.com 1.10,2013-02-20 21:10:00,
2013-02-20 16:25:00,17.3,9.0,29.85,NNW,327,13.0,23.0,71,0.00,,,0.00,weatherlink.com 1.10,2013-02-20 21:25:00,
2013-02-20 16:40:00,16.6,10.0,29.85,North,360,12.0,24.0,74,0.00,,,0.00,weatherlink.com 1.10,2013-02-20 21:40:00,
2013-02-20 16:55:00,16.6,9.0,29.86,NW,304,6.0,25.0,71,0.00,,,0.00,weatherlink.com 1.10,2013-02-20 21:55:00,
2013-02-20 17:10:00,16.6,8.0,29.86,NNW,332,12.0,23.0,69,0.00,,,0.00,weatherlink.com 1.10,2013-02-20 22:10:00,
2013-02-20 17:26:00,16.2,9.0,29.87,NNW,334,14.0,32.0,72,0.00,,,0.00,weatherlink.com 1.10,2013-02-20 22:26:00,
2013-02-20 17:40:00,16.1,9.0,29.88,NNW,339,12.0,21.0,74,0.00,,,0.00,weatherlink.com 1.10,2013-02-20 22:40:00,
2013-02-20 17:55:00,15.9,9.0,29.89,NNW,329,14.0,20.0,74,0.00,,,0.00,weatherlink.com 1.10,2013-02-20 22:55:00,
2013-02-20 18:10:00,15.8,10.0,29.89,NNW,329,6.0,24.0,76,0.00,,,0.00,weatherlink.com 1.10,2013-02-20 23:10:00,
2013-02-20 18:26:00,15.7,10.0,29.90,NW,322,7.0,21.0,77,0.00,,,0.00,weatherlink.com 1.10,2013-02-20 23:26:00,
2013-02-20 18:41:00,15.7,10.0,29.91,NW,321,6.0,21.0,77,0.00,,,0.00,weatherlink.com 1.10,2013-02-20 23:41:00,
2013-02-20 18:56:00,15.7,10.0,29.92,North,355,6.0,21.0,77,0.00,,,0.00,weatherlink.com 1.10,2013-02-20 23:56:00,
2013-02-20 19:12:00,15.6,9.0,29.92,North,350,9.0,19.0,76,0.00,,,0.00,weatherlink.com 1.10,2013-02-21 00:12:00,
2013-02-20 19:26:00,15.5,10.0,29.91,NW,311,18.0,23.0,77,0.00,,,0.00,weatherlink.com 1.10,2013-02-21 00:26:00,
2013-02-20 19:42:00,15.5,10.0,29.92,NNW,344,9.0,14.0,77,0.00,,,0.00,weatherlink.com 1.10,2013-02-21 00:42:00,
2013-02-20 19:56:00,15.4,10.0,29.93,NW,318,13.0,19.0,78,0.00,,,0.00,weatherlink.com 1.10,2013-02-21 00:56:00,
2013-02-20 20:11:00,15.3,10.0,29.93,NNE,17,11.0,16.0,78,0.00,,,0.00,weatherlink.com 1.10,2013-02-21 01:11:00,
2013-02-20 20:26:00,15.3,10.0,29.93,NW,321,11.0,18.0,78,0.00,,,0.00,weatherlink.com 1.10,2013-02-21 01:26:00,
2013-02-20 20:42:00,15.3,10.0,29.94,NNW,346,10.0,19.0,78,0.00,,,0.00,weatherlink.com 1.10,2013-02-21 01:42:00,
2013-02-20 20:57:00,15.6,10.0,29.94,NNW,344,9.0,22.0,79,0.00,,,0.00,weatherlink.com 1.10,2013-02-21 01:57:00,
2013-02-20 21:12:00,15.7,10.0,29.95,NW,308,9.0,15.0,78,0.00,,,0.00,weatherlink.com 1.10,2013-02-21 02:12:00,
2013-02-20 21:27:00,15.7,10.0,29.96,SSW,198,4.0,21.0,79,0.00,,,0.00,weatherlink.com 1.10,2013-02-21 02:27:00,
2013-02-20 21:42:00,15.7,10.0,29.95,NNE,22,5.0,21.0,79,0.00,,,0.00,weatherlink.com 1.10,2013-02-21 02:42:00,
2013-02-20 21:57:00,15.8,10.0,29.95,NNW,346,10.0,20.0,78,0.00,,,0.00,weatherlink.com 1.10,2013-02-21 02:57:00,
2013-02-20 22:12:00,15.8,10.0,29.95,NW,312,5.0,16.0,78,0.00,,,0.00,weatherlink.com 1.10,2013-02-21 03:12:00,
2013-02-20 22:27:00,15.8,10.0,29.94,NNW,328,8.0,22.0,78,0.00,,,0.00,weatherlink.com 1.10,2013-02-21 03:27:00,
2013-02-20 22:42:00,15.7,10.0,29.95,NNW,329,9.0,13.0,79,0.00,,,0.00,weatherlink.com 1.10,2013-02-21 03:42:00,
2013-02-20 22:57:00,15.7,11.0,29.95,WNW,299,11.0,27.0,80,0.00,,,0.00,weatherlink.com 1.10,2013-02-21 03:57:00,
2013-02-20 23:13:00,15.7,10.0,29.96,WSW,254,11.0,24.0,79,0.00,,,0.00,weatherlink.com 1.10,2013-02-21 04:13:00,
2013-02-20 23:29:00,15.6,11.0,29.95,NW,317,11.0,18.0,80,0.00,,,0.00,weatherlink.com 1.10,2013-02-21 04:29:00,
2013-02-20 23:43:00,15.5,10.0,29.95,NW,313,4.0,18.0,80,0.00,,,0.00,weatherlink.com 1.10,2013-02-21 04:43:00,
2013-02-20 23:58:00,15.4,10.0,29.95,West,263,4.0,20.0,80,0.00,,,0.00,weatherlink.com 1.10,2013-02-21 04:58:00,